Aviation Digital Data Service (ADDS)

Output produced by METARs form (0441 UTC 26 April 2019)
found at http://www.aviationweather.gov/metar/data/
 
Forecast for: MZBZ (BELIZE INTL , BZ)
Text: TAF MZBZ 260300Z 2606/2706 VRB02KT 9999 FEW022
Forecast period: 0600 to 1500 UTC 26 April 2019
Forecast type: FROM: standard forecast or significant change
Winds: variable direction winds at 2 MPH (2 knots; 1.0 m/s)
Visibility: 6 or more miles 10+ km)
Ceiling: at least 12,000 feet AGL
Clouds: few clouds at 2200 feet AGL
Weather: no significant weather forecast for this period
Text: BECMG 2615/2617 05007KT
Forecast period: 1500 UTC 26 April 2019 to 0600 UTC 27 April 2019
Forecast type: BECOMING: Conditions expected to become as follows by 1700 UTC 26 April 2019
Winds: from the NE (50 degrees) at 8 MPH (7 knots; 3.6 m/s)
Visibility: 6 or more miles 10+ km)
Ceiling: at least 12,000 feet AGL
Clouds: few clouds at 2200 feet AGL
Weather: no significant weather forecast for this period